Terminal Aerodrome Forecast
Issued by NWS Twin Cities, MN

Home | Current Version | Previous Version | Text Only | Print | Product List | Glossary Off
Versions: 1 2 3 4 5 6 7 8 9 10 11 12 13 14 15 16 17

000
FTUS43 KMPX 290520
TAFEAU
TAF
KEAU 290520Z 2906/3006 15006KT P6SM FEW200
     FM290900 16003KT 4SM BR SCT200
      TEMPO 2909/2913 2SM BR FEW003 SCT200
     FM291400 19005KT P6SM BKN200
     FM292000 21009KT P6SM BKN150=

USA.gov is the U.S. government's official web portal to all federal, state and local government web resources and services.